Time;durP1;ratioP1;P1;durP2;ratioP2;P2;SDS_P1;SDS_P2;PMS_P1;PMS_P2;Temp;Humidity;BMP_temperature;BMP_pressure;BME280_temperature;BME280_humidity;BME280_pressure;Samples;Min_cycle;Max_cycle;Signal;HPM_P1;HPM_P2
2023/09/22 00:01:20;;;;;;;23.63;21.20;;;;;;;;;;5049546;28;20028;-58
2023/09/22 00:03:47;;;;;;;22.75;19.95;;;;;;;;;;5047417;28;20490;-62
2023/09/22 00:06:12;;;;;;;22.25;19.73;;;;;;;;;;5059951;28;20021;-57
2023/09/22 00:08:38;;;;;;;22.50;19.42;;;;;;;;;;5056343;28;20399;-62
2023/09/22 00:11:10;;;;;;;23.15;20.25;;;;;;;;;;5058665;28;20016;-62
2023/09/22 00:13:36;;;;;;;23.00;20.65;;;;;;;;;;5048414;28;20021;-58
2023/09/22 00:16:02;;;;;;;22.83;20.23;;;;;;;;;;5049390;28;20032;-62
2023/09/22 00:18:27;;;;;;;19.08;17.08;;;;;;;;;;5046830;28;20032;-60
2023/09/22 00:20:54;;;;;;;26.33;20.15;;;;;;;;;;5056979;28;20115;-58
2023/09/22 00:23:20;;;;;;;24.02;20.10;;;;;;;;;;5066859;28;20070;-60
2023/09/22 00:25:45;;;;;;;21.73;19.48;;;;;;;;;;5068103;28;20041;-61
2023/09/22 00:28:10;;;;;;;22.55;19.80;;;;;;;;;;5064172;28;20539;-59
2023/09/22 00:30:36;;;;;;;20.83;18.05;;;;;;;;;;5058878;28;20343;-58
2023/09/22 00:33:02;;;;;;;21.85;19.63;;;;;;;;;;5071222;28;20470;-59
2023/09/22 00:35:28;;;;;;;32.45;23.70;;;;;;;;;;5056438;28;20074;-55
2023/09/22 00:37:53;;;;;;;23.27;20.77;;;;;;;;;;5052366;28;20029;-60
2023/09/22 00:40:19;;;;;;;33.00;23.42;;;;;;;;;;5060413;28;20386;-56
2023/09/22 00:42:45;;;;;;;19.63;17.67;;;;;;;;;;5046404;28;20038;-62
2023/09/22 00:45:11;;;;;;;23.75;20.90;;;;;;;;;;5047145;28;20452;-57
2023/09/22 00:47:36;;;;;;;21.25;18.92;;;;;;;;;;5027103;28;20040;-61
2023/09/22 00:50:02;;;;;;;25.75;18.75;;;;;;;;;;5049628;28;20052;-61
2023/09/22 00:52:27;;;;;;;21.25;18.90;;;;;;;;;;5066270;28;20031;-58
2023/09/22 00:54:53;;;;;;;24.60;21.98;;;;;;;;;;5065945;28;20712;-55
2023/09/22 00:57:19;;;;;;;30.08;21.58;;;;;;;;;;5066260;28;20489;-56
2023/09/22 00:59:46;;;;;;;24.55;21.75;;;;;;;;;;5063477;28;20032;-63
2023/09/22 01:02:11;;;;;;;34.30;22.65;;;;;;;;;;5046432;28;20023;-59
2023/09/22 01:04:36;;;;;;;22.02;19.45;;;;;;;;;;5045650;28;20021;-54
2023/09/22 01:07:02;;;;;;;20.75;17.60;;;;;;;;;;5066483;28;20448;-56
2023/09/22 01:09:27;;;;;;;21.25;19.02;;;;;;;;;;5069385;28;20417;-55
2023/09/22 01:11:52;;;;;;;24.35;19.27;;;;;;;;;;5068666;28;20432;-62
2023/09/22 01:14:18;;;;;;;21.95;19.55;;;;;;;;;;5070279;28;20108;-58
2023/09/22 01:16:44;;;;;;;22.38;18.08;;;;;;;;;;5048086;28;20508;-55
2023/09/22 01:19:14;;;;;;;38.85;25.52;;;;;;;;;;5050484;28;20437;-59
2023/09/22 01:21:39;;;;;;;20.67;18.45;;;;;;;;;;5051759;28;20105;-59
2023/09/22 01:24:05;;;;;;;20.55;18.25;;;;;;;;;;5049915;28;20060;-60
2023/09/22 01:26:30;;;;;;;22.25;18.85;;;;;;;;;;5050163;28;20029;-59
2023/09/22 01:28:55;;;;;;;22.27;19.63;;;;;;;;;;5045186;28;20021;-61
2023/09/22 01:31:21;;;;;;;27.95;21.10;;;;;;;;;;5047134;28;20455;-57
2023/09/22 01:33:46;;;;;;;22.63;19.05;;;;;;;;;;5044987;28;20025;-63
2023/09/22 01:36:13;;;;;;;24.48;17.58;;;;;;;;;;5058330;28;20032;-58
2023/09/22 01:38:39;;;;;;;20.30;18.25;;;;;;;;;;5049290;28;20028;-57
2023/09/22 01:41:04;;;;;;;20.08;17.48;;;;;;;;;;5048647;28;20017;-58
2023/09/22 01:43:29;;;;;;;23.92;19.52;;;;;;;;;;5045351;28;20037;-62
2023/09/22 01:45:54;;;;;;;21.65;18.10;;;;;;;;;;5052912;28;20119;-59
2023/09/22 01:48:20;;;;;;;20.80;18.42;;;;;;;;;;5057426;28;20029;-58
2023/09/22 01:50:45;;;;;;;21.92;17.33;;;;;;;;;;5047806;28;20055;-58
2023/09/22 01:53:10;;;;;;;23.67;19.10;;;;;;;;;;5043976;28;20086;-61
2023/09/22 01:55:36;;;;;;;21.58;17.58;;;;;;;;;;5060850;28;20460;-57
2023/09/22 01:58:01;;;;;;;21.08;17.85;;;;;;;;;;5065071;28;20025;-60
2023/09/22 02:00:27;;;;;;;22.67;16.60;;;;;;;;;;5062157;28;20458;-59
2023/09/22 02:02:55;;;;;;;19.63;17.25;;;;;;;;;;5068501;28;20428;-61
2023/09/22 02:05:20;;;;;;;25.13;20.93;;;;;;;;;;5060068;28;20113;-61
2023/09/22 02:07:46;;;;;;;21.60;17.85;;;;;;;;;;5064868;28;20638;-60
2023/09/22 02:10:13;;;;;;;21.60;18.83;;;;;;;;;;5063600;28;20020;-59
2023/09/22 02:12:40;;;;;;;23.38;19.40;;;;;;;;;;5064528;28;20017;-54
2023/09/22 02:15:07;;;;;;;27.92;19.75;;;;;;;;;;5062774;28;20028;-56
2023/09/22 02:17:32;;;;;;;22.55;19.73;;;;;;;;;;5064473;28;20338;-57
2023/09/22 02:19:58;;;;;;;22.33;20.10;;;;;;;;;;5061843;28;20470;-57
2023/09/22 02:22:23;;;;;;;22.55;20.15;;;;;;;;;;5060821;28;20140;-60
2023/09/22 02:24:48;;;;;;;25.83;21.50;;;;;;;;;;5054655;28;20530;-62
2023/09/22 02:27:14;;;;;;;16.88;14.90;;;;;;;;;;5064224;28;20302;-57
2023/09/22 02:29:39;;;;;;;23.67;21.17;;;;;;;;;;5063087;28;20161;-62
2023/09/22 02:32:05;;;;;;;19.98;17.63;;;;;;;;;;5063888;28;20466;-58
2023/09/22 02:34:30;;;;;;;24.48;20.42;;;;;;;;;;5064094;28;20504;-59
2023/09/22 02:36:55;;;;;;;19.98;17.58;;;;;;;;;;5062547;28;20051;-60
2023/09/22 02:39:21;;;;;;;19.40;17.42;;;;;;;;;;5064176;28;20024;-62
2023/09/22 02:41:47;;;;;;;20.90;18.70;;;;;;;;;;5063727;28;20027;-57
2023/09/22 02:44:13;;;;;;;24.27;20.15;;;;;;;;;;5053717;28;20037;-61
2023/09/22 02:46:38;;;;;;;23.60;19.63;;;;;;;;;;5046438;28;20033;-61
2023/09/22 02:49:04;;;;;;;25.52;19.35;;;;;;;;;;5044150;28;20013;-59
2023/09/22 02:51:29;;;;;;;21.63;19.30;;;;;;;;;;5046465;28;20033;-60
2023/09/22 02:53:54;;;;;;;17.42;15.70;;;;;;;;;;5043057;28;20397;-63
2023/09/22 02:56:20;;;;;;;20.70;17.77;;;;;;;;;;5054638;28;20036;-56
2023/09/22 02:58:45;;;;;;;22.13;18.95;;;;;;;;;;5023834;28;20033;-61
2023/09/22 03:01:11;;;;;;;23.27;20.80;;;;;;;;;;5047448;28;20123;-60
2023/09/22 03:03:36;;;;;;;21.05;18.85;;;;;;;;;;5043855;28;20044;-62
2023/09/22 03:06:02;;;;;;;21.33;18.77;;;;;;;;;;5045154;28;20044;-62
2023/09/22 03:08:27;;;;;;;17.75;16.13;;;;;;;;;;5043839;28;20063;-59
2023/09/22 03:10:52;;;;;;;19.45;17.38;;;;;;;;;;5054292;28;20418;-63
2023/09/22 03:13:18;;;;;;;20.75;18.45;;;;;;;;;;5063692;28;20016;-57
2023/09/22 03:15:43;;;;;;;23.65;21.00;;;;;;;;;;5061496;28;20024;-56
2023/09/22 03:18:08;;;;;;;22.30;19.88;;;;;;;;;;5044194;28;20025;-62
2023/09/22 03:20:33;;;;;;;22.23;18.70;;;;;;;;;;5063006;28;20397;-54
2023/09/22 03:22:59;;;;;;;20.55;18.42;;;;;;;;;;5064038;28;20017;-59
2023/09/22 03:25:24;;;;;;;22.25;19.92;;;;;;;;;;5061478;28;20471;-57
2023/09/22 03:27:49;;;;;;;21.98;19.77;;;;;;;;;;5059102;28;20119;-56
2023/09/22 03:30:15;;;;;;;19.52;17.42;;;;;;;;;;5052443;28;20456;-57
2023/09/22 03:32:40;;;;;;;22.90;20.13;;;;;;;;;;5067206;28;20021;-60
2023/09/22 03:35:07;;;;;;;19.63;17.63;;;;;;;;;;5063462;28;20125;-56
2023/09/22 03:37:32;;;;;;;22.55;20.20;;;;;;;;;;5044682;28;20063;-62
2023/09/22 03:39:58;;;;;;;22.30;19.88;;;;;;;;;;5048413;28;20040;-57
2023/09/22 03:42:24;;;;;;;23.38;20.52;;;;;;;;;;5049336;28;20033;-57
2023/09/22 03:44:50;;;;;;;22.90;20.38;;;;;;;;;;5049618;28;20060;-58
2023/09/22 03:47:15;;;;;;;21.67;19.42;;;;;;;;;;5044660;28;20059;-61
2023/09/22 03:49:40;;;;;;;24.38;21.83;;;;;;;;;;5049557;28;20028;-62
2023/09/22 03:52:05;;;;;;;22.50;20.20;;;;;;;;;;5047970;28;20013;-59
2023/09/22 03:54:31;;;;;;;22.20;18.98;;;;;;;;;;5047244;28;20036;-55
2023/09/22 03:56:56;;;;;;;24.05;19.40;;;;;;;;;;5062510;28;20098;-58
2023/09/22 03:59:22;;;;;;;27.30;20.17;;;;;;;;;;5066737;28;20024;-62
2023/09/22 04:01:47;;;;;;;21.33;18.02;;;;;;;;;;5066260;28;20321;-59
2023/09/22 04:04:13;;;;;;;19.02;17.02;;;;;;;;;;5065522;28;20470;-61
2023/09/22 04:06:38;;;;;;;19.02;15.88;;;;;;;;;;5066235;28;20445;-59
2023/09/22 04:09:04;;;;;;;19.65;17.65;;;;;;;;;;5067189;28;20526;-58
2023/09/22 04:11:29;;;;;;;26.60;21.83;;;;;;;;;;5064631;28;20032;-61
2023/09/22 04:13:54;;;;;;;20.83;18.60;;;;;;;;;;5046861;28;20056;-61
2023/09/22 04:16:19;;;;;;;25.85;20.80;;;;;;;;;;5060606;28;20082;-62
2023/09/22 04:18:45;;;;;;;22.27;19.35;;;;;;;;;;5067008;28;20457;-58
2023/09/22 04:21:12;;;;;;;22.70;20.25;;;;;;;;;;5065443;28;20496;-56
2023/09/22 04:23:44;;;;;;;25.75;18.30;;;;;;;;;;5066859;28;20029;-61
2023/09/22 04:26:10;;;;;;;30.02;22.02;;;;;;;;;;5064354;28;20020;-55
2023/09/22 04:28:38;;;;;;;22.52;19.58;;;;;;;;;;5065587;28;20395;-61
2023/09/22 04:31:03;;;;;;;23.85;21.27;;;;;;;;;;5065739;28;20032;-60
2023/09/22 04:33:28;;;;;;;26.77;23.23;;;;;;;;;;5066369;28;20024;-63
2023/09/22 04:35:54;;;;;;;26.27;19.33;;;;;;;;;;5064564;28;20020;-57
2023/09/22 04:38:19;;;;;;;24.83;19.83;;;;;;;;;;5065405;28;20025;-59
2023/09/22 04:40:45;;;;;;;29.77;21.88;;;;;;;;;;5065457;28;20469;-62
2023/09/22 04:43:13;;;;;;;23.52;20.30;;;;;;;;;;5061384;28;20021;-61
2023/09/22 04:45:40;;;;;;;35.28;26.50;;;;;;;;;;5047994;28;20303;-63
2023/09/22 04:48:06;;;;;;;28.25;19.20;;;;;;;;;;5046714;28;20021;-61
2023/09/22 04:50:32;;;;;;;30.02;22.80;;;;;;;;;;5052691;28;20071;-60
2023/09/22 04:52:58;;;;;;;24.75;21.38;;;;;;;;;;5066114;28;20511;-57
2023/09/22 04:55:23;;;;;;;26.02;23.27;;;;;;;;;;5064398;28;20048;-62
2023/09/22 04:57:49;;;;;;;27.42;22.70;;;;;;;;;;5066225;28;20028;-59
2023/09/22 05:00:21;;;;;;;28.75;21.70;;;;;;;;;;5060780;28;20039;-61
2023/09/22 05:02:46;;;;;;;27.98;22.50;;;;;;;;;;5064679;28;20028;-60
2023/09/22 05:05:12;;;;;;;22.63;20.25;;;;;;;;;;5064668;28;20107;-61
2023/09/22 05:07:37;;;;;;;28.83;23.45;;;;;;;;;;5064884;28;20033;-61
2023/09/22 05:10:03;;;;;;;24.52;19.77;;;;;;;;;;5048099;28;20031;-62
2023/09/22 05:12:30;;;;;;;28.13;22.13;;;;;;;;;;5066168;28;20059;-57
2023/09/22 05:14:55;;;;;;;25.63;21.55;;;;;;;;;;5063282;28;20072;-61
2023/09/22 05:17:21;;;;;;;20.60;18.45;;;;;;;;;;5062302;28;20151;-62
2023/09/22 05:19:47;;;;;;;37.22;24.95;;;;;;;;;;5063955;28;20523;-57
2023/09/22 05:22:13;;;;;;;35.13;19.70;;;;;;;;;;5046122;28;20142;-57
2023/09/22 05:24:38;;;;;;;24.15;21.55;;;;;;;;;;5063517;28;20028;-60
2023/09/22 05:27:07;;;;;;;32.45;21.90;;;;;;;;;;5065282;28;20032;-62
2023/09/22 05:29:32;;;;;;;24.70;22.13;;;;;;;;;;5064309;28;20059;-60
2023/09/22 05:31:57;;;;;;;26.65;21.42;;;;;;;;;;5054413;28;20048;-61
2023/09/22 05:34:23;;;;;;;21.55;18.92;;;;;;;;;;5045052;28;20071;-57
2023/09/22 05:36:49;;;;;;;30.95;23.38;;;;;;;;;;5047249;28;20505;-57
2023/09/22 05:39:15;;;;;;;23.15;17.13;;;;;;;;;;5054422;28;20033;-57
2023/09/22 05:41:40;;;;;;;26.73;21.75;;;;;;;;;;5054776;28;20659;-56
2023/09/22 05:44:07;;;;;;;21.13;18.58;;;;;;;;;;5054552;28;20056;-63
2023/09/22 05:46:33;;;;;;;23.75;20.95;;;;;;;;;;5047271;28;20180;-61
2023/09/22 05:48:58;;;;;;;27.50;20.48;;;;;;;;;;5056425;28;20037;-58
2023/09/22 05:51:23;;;;;;;28.13;20.80;;;;;;;;;;5056190;28;20060;-58
2023/09/22 05:53:51;;;;;;;36.28;24.52;;;;;;;;;;5060165;28;20028;-62
2023/09/22 05:56:16;;;;;;;25.05;21.83;;;;;;;;;;5054862;28;20037;-56
2023/09/22 05:58:41;;;;;;;30.92;15.25;;;;;;;;;;5050116;28;20032;-54
2023/09/22 06:01:13;;;;;;;29.90;18.42;;;;;;;;;;5050709;28;20474;-57
2023/09/22 06:03:40;;;;;;;31.10;15.73;;;;;;;;;;5051489;28;20028;-60
2023/09/22 06:06:06;;;;;;;38.67;10.77;;;;;;;;;;5055078;28;20127;-55
2023/09/22 06:08:31;;;;;;;54.70;15.75;;;;;;;;;;5049631;28;20028;-59
2023/09/22 06:10:59;;;;;;;43.30;14.25;;;;;;;;;;5058557;28;20033;-61
2023/09/22 06:13:24;;;;;;;96.90;25.73;;;;;;;;;;5050016;28;20786;-60
2023/09/22 06:15:51;;;;;;;75.47;21.58;;;;;;;;;;5055070;28;20024;-58
2023/09/22 06:18:18;;;;;;;39.05;11.73;;;;;;;;;;5056371;28;20024;-62
2023/09/22 06:20:44;;;;;;;44.88;14.38;;;;;;;;;;5064465;28;20029;-57
2023/09/22 06:23:09;;;;;;;49.25;12.98;;;;;;;;;;5063068;28;20107;-60
2023/09/22 06:25:35;;;;;;;72.97;17.20;;;;;;;;;;5069416;28;20017;-58
2023/09/22 06:28:00;;;;;;;80.10;19.98;;;;;;;;;;5052851;28;20021;-56
2023/09/22 06:30:25;;;;;;;57.72;13.57;;;;;;;;;;5055992;28;20060;-61
2023/09/22 06:32:51;;;;;;;81.93;18.88;;;;;;;;;;5062479;28;20082;-59
2023/09/22 06:35:16;;;;;;;51.47;12.52;;;;;;;;;;5059224;28;20032;-58
2023/09/22 06:37:42;;;;;;;55.92;17.30;;;;;;;;;;5063541;28;20034;-63
2023/09/22 06:40:15;;;;;;;47.13;14.20;;;;;;;;;;5062400;28;20107;-58
2023/09/22 06:42:44;;;;;;;44.65;10.85;;;;;;;;;;5053344;28;20027;-57
2023/09/22 06:45:10;;;;;;;48.78;12.93;;;;;;;;;;5060146;28;20506;-60
2023/09/22 06:47:35;;;;;;;52.25;16.58;;;;;;;;;;5053623;28;20035;-61
2023/09/22 06:50:05;;;;;;;50.55;13.45;;;;;;;;;;5056732;28;20573;-57
2023/09/22 06:52:30;;;;;;;55.22;16.48;;;;;;;;;;5055617;28;20124;-57
2023/09/22 06:54:56;;;;;;;38.03;17.33;;;;;;;;;;5053567;28;20162;-62
2023/09/22 06:57:21;;;;;;;37.13;9.98;;;;;;;;;;5057895;28;21268;-58
2023/09/22 06:59:50;;;;;;;45.85;15.95;;;;;;;;;;5053886;28;20527;-56
2023/09/22 07:02:15;;;;;;;35.42;12.32;;;;;;;;;;5056615;28;20021;-55
2023/09/22 07:04:40;;;;;;;38.85;15.25;;;;;;;;;;5053977;28;20110;-59
2023/09/22 07:07:06;;;;;;;36.80;12.98;;;;;;;;;;5058449;28;20500;-60
2023/09/22 07:09:31;;;;;;;33.30;13.30;;;;;;;;;;5054060;28;20029;-56
2023/09/22 07:11:57;;;;;;;166.05;52.45;;;;;;;;;;5060196;28;20711;-59
2023/09/22 07:14:22;;;;;;;191.88;60.05;;;;;;;;;;5057059;28;20023;-59
2023/09/22 07:16:48;;;;;;;193.82;56.88;;;;;;;;;;5057943;28;20111;-58
2023/09/22 07:19:13;;;;;;;200.15;59.55;;;;;;;;;;5054438;28;20028;-60
2023/09/22 07:21:39;;;;;;;201.55;61.90;;;;;;;;;;5047272;28;20086;-56
2023/09/22 07:24:05;;;;;;;201.80;62.10;;;;;;;;;;5051151;28;20023;-60
2023/09/22 07:26:30;;;;;;;199.50;59.35;;;;;;;;;;5056676;28;20028;-60
2023/09/22 07:28:58;;;;;;;202.07;59.22;;;;;;;;;;5057872;28;20085;-59
2023/09/22 07:31:30;;;;;;;203.98;60.33;;;;;;;;;;5055062;28;20033;-58
2023/09/22 07:33:55;;;;;;;211.32;64.50;;;;;;;;;;5059965;28;20036;-57
2023/09/22 07:36:21;;;;;;;203.68;58.47;;;;;;;;;;5058132;28;20020;-57
2023/09/22 07:38:46;;;;;;;204.90;59.17;;;;;;;;;;5055458;28;20409;-59
2023/09/22 07:41:11;;;;;;;204.40;59.67;;;;;;;;;;5048527;28;20079;-60
2023/09/22 07:43:37;;;;;;;205.50;57.78;;;;;;;;;;5060370;28;20489;-57
2023/09/22 07:46:04;;;;;;;211.50;60.63;;;;;;;;;;5045576;28;20789;-58
2023/09/22 07:48:30;;;;;;;202.98;57.55;;;;;;;;;;5053027;28;20028;-57
2023/09/22 07:50:56;;;;;;;154.50;41.20;;;;;;;;;;5055203;28;20124;-62
2023/09/22 07:53:21;;;;;;;28.75;10.48;;;;;;;;;;5061611;28;20107;-60
2023/09/22 07:55:47;;;;;;;27.70;10.60;;;;;;;;;;5061637;28;20078;-62
2023/09/22 07:58:13;;;;;;;27.80;11.15;;;;;;;;;;5060162;28;20702;-62
2023/09/22 08:00:42;;;;;;;22.52;16.92;;;;;;;;;;5055794;28;20016;-59
2023/09/22 08:03:09;;;;;;;22.58;20.02;;;;;;;;;;5058939;28;20078;-55
2023/09/22 08:05:34;;;;;;;19.73;17.67;;;;;;;;;;5059444;28;20028;-57
2023/09/22 08:07:59;;;;;;;22.20;18.52;;;;;;;;;;5060056;28;20027;-62
2023/09/22 08:10:25;;;;;;;16.85;15.25;;;;;;;;;;5059670;28;20035;-58
2023/09/22 08:12:50;;;;;;;18.70;16.77;;;;;;;;;;5059880;28;20520;-58
2023/09/22 08:15:16;;;;;;;34.95;24.58;;;;;;;;;;5053995;28;20025;-65
2023/09/22 08:17:42;;;;;;;26.17;23.55;;;;;;;;;;5055383;28;20040;-60
2023/09/22 08:20:12;;;;;;;28.08;25.58;;;;;;;;;;5057449;28;20425;-59
2023/09/22 08:22:39;;;;;;;28.83;26.20;;;;;;;;;;5055087;28;20055;-60
2023/09/22 08:25:08;;;;;;;32.65;29.77;;;;;;;;;;5056585;28;20070;-59
2023/09/22 08:27:33;;;;;;;33.22;26.08;;;;;;;;;;5054268;28;20041;-61
2023/09/22 08:29:59;;;;;;;28.05;25.23;;;;;;;;;;5065772;28;20074;-57
2023/09/22 08:32:25;;;;;;;18.60;17.00;;;;;;;;;;5062385;28;20308;-59
2023/09/22 08:34:50;;;;;;;22.05;19.88;;;;;;;;;;5035962;28;20810;-61
2023/09/22 08:37:16;;;;;;;22.10;20.20;;;;;;;;;;5060693;28;20603;-59
2023/09/22 08:39:42;;;;;;;29.50;26.42;;;;;;;;;;5062625;28;20055;-58
2023/09/22 08:42:07;;;;;;;27.92;25.13;;;;;;;;;;5056092;28;20049;-59
2023/09/22 08:44:33;;;;;;;26.02;20.55;;;;;;;;;;5066009;28;20517;-62
2023/09/22 08:46:58;;;;;;;23.88;20.30;;;;;;;;;;5055171;28;20031;-59
2023/09/22 08:49:26;;;;;;;28.15;25.65;;;;;;;;;;5053749;28;20089;-61
2023/09/22 08:51:51;;;;;;;23.95;21.13;;;;;;;;;;5056862;28;20017;-61
2023/09/22 08:54:17;;;;;;;27.92;24.08;;;;;;;;;;5050421;28;20025;-60
2023/09/22 08:56:43;;;;;;;25.13;22.92;;;;;;;;;;5054673;28;20021;-56
2023/09/22 08:59:09;;;;;;;28.73;25.38;;;;;;;;;;5052041;28;20036;-56
2023/09/22 09:01:34;;;;;;;21.75;19.73;;;;;;;;;;5057043;28;20101;-59
2023/09/22 09:04:20;;;;;;;21.25;19.35;;;;;;;;;;5064625;28;20054;-59
2023/09/22 09:06:46;;;;;;;19.92;18.00;;;;;;;;;;5064876;28;20451;-57
2023/09/22 09:09:12;;;;;;;22.40;20.33;;;;;;;;;;5065914;28;20028;-59
2023/09/22 09:11:56;;;;;;;21.45;19.50;;;;;;;;;;5065883;28;20025;-61
2023/09/22 09:14:23;;;;;;;20.58;17.85;;;;;;;;;;5063789;28;20028;-62
2023/09/22 09:16:49;;;;;;;21.58;19.42;;;;;;;;;;5064432;28;20340;-58
2023/09/22 09:19:15;;;;;;;25.92;19.25;;;;;;;;;;5060417;28;20021;-62
2023/09/22 09:22:00;;;;;;;26.70;17.95;;;;;;;;;;5047441;28;20052;-59
2023/09/22 09:24:25;;;;;;;20.63;18.50;;;;;;;;;;5016842;28;20546;-63
2023/09/22 09:26:51;;;;;;;21.00;18.87;;;;;;;;;;5061503;28;20043;-59
2023/09/22 09:29:25;;;;;;;23.00;18.98;;;;;;;;;;5049986;28;20258;-63
2023/09/22 09:31:51;;;;;;;19.38;17.42;;;;;;;;;;5057770;28;20032;-63
2023/09/22 09:34:16;;;;;;;23.77;19.60;;;;;;;;;;5061586;28;20029;-58
2023/09/22 09:36:41;;;;;;;27.13;19.85;;;;;;;;;;5062548;28;20504;-58
2023/09/22 09:39:08;;;;;;;17.48;13.60;;;;;;;;;;5056249;28;20029;-55
2023/09/22 09:41:34;;;;;;;23.90;15.40;;;;;;;;;;5048229;28;21756;-59
2023/09/22 09:44:01;;;;;;;18.88;16.83;;;;;;;;;;5065675;28;20068;-58
2023/09/22 09:46:26;;;;;;;17.52;14.73;;;;;;;;;;5066305;28;20043;-58
2023/09/22 09:48:52;;;;;;;15.30;13.52;;;;;;;;;;5066365;28;20115;-61
2023/09/22 09:51:20;;;;;;;17.00;15.25;;;;;;;;;;5064799;28;20477;-60
2023/09/22 09:53:46;;;;;;;16.92;12.18;;;;;;;;;;5084810;28;20029;-59
2023/09/22 09:56:17;;;;;;;17.85;12.93;;;;;;;;;;5069046;28;20020;-54
2023/09/22 09:58:45;;;;;;;12.98;11.50;;;;;;;;;;5069339;28;20021;-56
2023/09/22 10:01:11;;;;;;;16.17;14.50;;;;;;;;;;5069326;28;20024;-61
2023/09/22 10:03:39;;;;;;;20.25;15.82;;;;;;;;;;5069970;28;20295;-56
2023/09/22 10:06:06;;;;;;;16.35;10.20;;;;;;;;;;5071391;28;20028;-60
2023/09/22 10:08:32;;;;;;;23.10;15.02;;;;;;;;;;5066980;28;20028;-60
2023/09/22 10:10:59;;;;;;;16.08;14.20;;;;;;;;;;5066242;28;20027;-61
2023/09/22 10:13:24;;;;;;;26.15;14.80;;;;;;;;;;5066201;28;20023;-53
2023/09/22 10:15:54;;;;;;;19.05;16.85;;;;;;;;;;5065430;28;20020;-59
2023/09/22 10:18:20;;;;;;;21.23;14.80;;;;;;;;;;5064827;28;20020;-61
2023/09/22 10:20:46;;;;;;;16.33;14.65;;;;;;;;;;5064679;28;20035;-57
2023/09/22 10:23:27;;;;;;;16.88;13.90;;;;;;;;;;5064548;28;20517;-61
2023/09/22 10:26:12;;;;;;;16.85;14.88;;;;;;;;;;5065520;28;20093;-60
2023/09/22 10:28:39;;;;;;;17.15;11.77;;;;;;;;;;5063907;28;20039;-59
2023/09/22 10:31:05;;;;;;;22.33;16.10;;;;;;;;;;5050131;28;20025;-59
2023/09/22 10:33:30;;;;;;;19.00;11.85;;;;;;;;;;5045287;28;20029;-59
2023/09/22 10:35:55;;;;;;;21.50;13.38;;;;;;;;;;5056882;28;20060;-60
2023/09/22 10:38:21;;;;;;;19.40;13.32;;;;;;;;;;5062693;28;20028;-63
2023/09/22 10:40:58;;;;;;;13.60;9.98;;;;;;;;;;5052058;28;20120;-57
2023/09/22 10:43:24;;;;;;;31.00;17.80;;;;;;;;;;5044611;28;20057;-63
2023/09/22 10:45:51;;;;;;;52.88;46.63;;;;;;;;;;5043585;28;20126;-59
2023/09/22 10:48:17;;;;;;;56.00;32.97;;;;;;;;;;5060766;28;20043;-60
2023/09/22 10:50:43;;;;;;;24.20;20.00;;;;;;;;;;5063015;28;20025;-56
2023/09/22 10:53:08;;;;;;;15.18;11.98;;;;;;;;;;5056863;28;20020;-59
2023/09/22 10:55:36;;;;;;;17.90;14.82;;;;;;;;;;5059568;28;20437;-58
2023/09/22 10:58:06;;;;;;;31.20;25.65;;;;;;;;;;5049470;28;21185;-60
2023/09/22 11:00:49;;;;;;;31.77;23.35;;;;;;;;;;5059781;28;20059;-58
2023/09/22 11:03:14;;;;;;;23.52;20.77;;;;;;;;;;5026366;28;20031;-60
2023/09/22 11:05:41;;;;;;;26.77;24.13;;;;;;;;;;5063610;28;20020;-58
2023/09/22 11:08:13;;;;;;;24.58;21.13;;;;;;;;;;5058572;28;20055;-56
2023/09/22 11:10:39;;;;;;;26.33;23.58;;;;;;;;;;5052217;28;20029;-59
2023/09/22 11:13:05;;;;;;;33.88;15.77;;;;;;;;;;5059778;28;20025;-61
2023/09/22 11:15:31;;;;;;;28.20;18.35;;;;;;;;;;5055803;28;20029;-58
2023/09/22 11:17:56;;;;;;;54.55;23.02;;;;;;;;;;5049812;28;20025;-58
2023/09/22 11:20:26;;;;;;;22.73;15.50;;;;;;;;;;5055926;28;20085;-59
2023/09/22 11:22:52;;;;;;;22.50;15.52;;;;;;;;;;5054919;28;20040;-57
2023/09/22 11:25:18;;;;;;;32.75;17.15;;;;;;;;;;5055178;28;20107;-58
2023/09/22 11:27:45;;;;;;;28.15;24.55;;;;;;;;;;5056137;28;20107;-59
2023/09/22 11:30:14;;;;;;;23.75;19.55;;;;;;;;;;5050985;28;20040;-57
2023/09/22 11:32:39;;;;;;;19.30;17.25;;;;;;;;;;5057972;28;20039;-56
2023/09/22 11:35:04;;;;;;;44.53;23.05;;;;;;;;;;5066795;28;20016;-55
2023/09/22 11:37:30;;;;;;;100.07;31.42;;;;;;;;;;5067592;28;20370;-60
2023/09/22 11:39:56;;;;;;;15.18;13.73;;;;;;;;;;5064600;28;20036;-61
2023/09/22 11:42:21;;;;;;;15.27;13.73;;;;;;;;;;5056597;28;20103;-57
2023/09/22 11:44:46;;;;;;;162.10;40.47;;;;;;;;;;5053389;28;20431;-58
2023/09/22 11:47:24;;;;;;;262.58;90.97;;;;;;;;;;5062182;28;20049;-61
2023/09/22 11:49:50;;;;;;;463.38;197.48;;;;;;;;;;5064932;28;20028;-57
2023/09/22 11:52:26;;;;;;;209.55;64.60;;;;;;;;;;5062029;28;20009;-58
2023/09/22 11:54:52;;;;;;;110.18;37.55;;;;;;;;;;5059708;28;20402;-58
2023/09/22 11:57:19;;;;;;;138.07;45.00;;;;;;;;;;5055950;28;20924;-59
2023/09/22 11:59:46;;;;;;;141.13;44.42;;;;;;;;;;5059140;28;20254;-61
2023/09/22 12:02:11;;;;;;;132.63;41.95;;;;;;;;;;5055409;28;20120;-59
2023/09/22 12:04:37;;;;;;;132.52;43.13;;;;;;;;;;5062342;28;20107;-56
2023/09/22 12:07:03;;;;;;;115.38;38.42;;;;;;;;;;5064495;28;20040;-59
2023/09/22 12:09:28;;;;;;;112.78;37.50;;;;;;;;;;5062403;28;20029;-58
2023/09/22 12:11:54;;;;;;;668.53;327.58;;;;;;;;;;5052530;28;20027;-56
2023/09/22 12:14:20;;;;;;;433.90;205.15;;;;;;;;;;5061469;28;20025;-60
2023/09/22 12:16:45;;;;;;;669.38;331.15;;;;;;;;;;5060195;28;20027;-59
2023/09/22 12:19:11;;;;;;;680.28;300.52;;;;;;;;;;5061428;28;20021;-60
2023/09/22 12:21:36;;;;;;;20.65;16.13;;;;;;;;;;5062638;28;20039;-58
2023/09/22 12:24:01;;;;;;;692.17;368.15;;;;;;;;;;5061530;28;20421;-61
2023/09/22 12:26:27;;;;;;;691.67;361.17;;;;;;;;;;5065656;28;20035;-61
2023/09/22 12:28:53;;;;;;;683.00;319.17;;;;;;;;;;5059345;28;20118;-61
2023/09/22 12:31:18;;;;;;;693.45;361.85;;;;;;;;;;5063278;28;20472;-58
2023/09/22 12:33:44;;;;;;;697.63;399.92;;;;;;;;;;5062188;28;20025;-63
2023/09/22 12:36:13;;;;;;;699.47;402.85;;;;;;;;;;5060144;28;20369;-60
2023/09/22 12:38:38;;;;;;;692.53;392.15;;;;;;;;;;5060381;28;20024;-58
2023/09/22 12:41:05;;;;;;;467.65;219.18;;;;;;;;;;5064548;28;20032;-61
2023/09/22 12:43:31;;;;;;;694.08;406.75;;;;;;;;;;5062691;28;20032;-63
2023/09/22 12:45:56;;;;;;;683.70;390.37;;;;;;;;;;5060955;28;20028;-55
2023/09/22 12:48:21;;;;;;;689.00;398.73;;;;;;;;;;5057870;28;20125;-61
2023/09/22 12:50:54;;;;;;;690.35;401.70;;;;;;;;;;5057912;28;20033;-62
2023/09/22 12:53:19;;;;;;;686.20;385.10;;;;;;;;;;5059856;28;20424;-59
2023/09/22 12:55:44;;;;;;;678.05;386.25;;;;;;;;;;5066022;28;20043;-56
2023/09/22 12:58:09;;;;;;;681.33;376.05;;;;;;;;;;5089373;28;20021;-65
2023/09/22 13:00:42;;;;;;;680.78;376.00;;;;;;;;;;5055130;28;20029;-61
2023/09/22 13:03:08;;;;;;;675.88;363.42;;;;;;;;;;5052014;28;20036;-58
2023/09/22 13:05:34;;;;;;;685.45;369.60;;;;;;;;;;5059584;28;20085;-64
2023/09/22 13:07:59;;;;;;;678.15;374.75;;;;;;;;;;5064606;28;20443;-59
2023/09/22 13:10:24;;;;;;;690.90;378.90;;;;;;;;;;5064958;28;20623;-58
2023/09/22 13:12:50;;;;;;;689.33;389.30;;;;;;;;;;5065549;28;20517;-62
2023/09/22 13:15:15;;;;;;;681.38;373.30;;;;;;;;;;5065764;28;20016;-60
2023/09/22 13:17:40;;;;;;;704.30;405.35;;;;;;;;;;5060085;28;20057;-55
2023/09/22 13:20:06;;;;;;;682.85;370.00;;;;;;;;;;5058413;28;20044;-62
2023/09/22 13:22:32;;;;;;;689.72;385.08;;;;;;;;;;5061809;28;20039;-63
2023/09/22 13:24:57;;;;;;;685.75;383.50;;;;;;;;;;5063357;28;20028;-59
2023/09/22 13:27:23;;;;;;;678.22;375.65;;;;;;;;;;5061668;28;20025;-61
2023/09/22 13:29:48;;;;;;;679.55;378.08;;;;;;;;;;5063853;28;20055;-61
2023/09/22 13:32:13;;;;;;;686.33;371.75;;;;;;;;;;5064427;28;20036;-59
2023/09/22 13:34:39;;;;;;;682.50;382.83;;;;;;;;;;5060093;28;20013;-62
2023/09/22 13:37:04;;;;;;;684.45;374.02;;;;;;;;;;5056442;28;20131;-57
2023/09/22 13:39:33;;;;;;;685.60;367.17;;;;;;;;;;5054761;28;20041;-59
2023/09/22 13:41:58;;;;;;;;;;;;;;;;;;5045667;28;20017;-58
2023/09/22 13:44:24;;;;;;;678.37;361.17;;;;;;;;;;5055439;28;19923;-62
2023/09/22 13:46:49;;;;;;;674.55;378.25;;;;;;;;;;5064859;28;20032;-62
2023/09/22 13:49:15;;;;;;;677.67;362.48;;;;;;;;;;5064935;28;20099;-61
2023/09/22 13:51:40;;;;;;;678.38;374.95;;;;;;;;;;5064630;28;20025;-60
2023/09/22 13:54:06;;;;;;;670.58;361.83;;;;;;;;;;5064886;28;20060;-59
2023/09/22 13:56:31;;;;;;;683.20;383.52;;;;;;;;;;5064585;28;20071;-60
2023/09/22 13:58:57;;;;;;;677.75;377.40;;;;;;;;;;5064765;28;20450;-58
2023/09/22 14:01:22;;;;;;;669.92;377.95;;;;;;;;;;5064288;28;20027;-55
2023/09/22 14:03:48;;;;;;;682.45;383.50;;;;;;;;;;5064411;28;20057;-55
2023/09/22 14:06:18;;;;;;;686.75;384.55;;;;;;;;;;5063343;28;20028;-63
2023/09/22 14:08:46;;;;;;;682.95;386.90;;;;;;;;;;5064738;28;20020;-60